Headlee Ranch, South Dakota
Current Conditions -  °F | °C
As of 12:55 AM on Wednesday 26 Nov 2014 (Local Time) from KPHP Reporting Station
Overcast Overcast  
Wind Chill: 12°   Ceiling: 2400
Heat Index: 27°   Visibility: 10mi
Dew Point: 20°   Wind: 25mph
Humidity: 75%   Direction: 350°N
Pressure: 30.08"   Gusts: 37mph
Location:  43.7587°N, 101.898°W
Report Text: KPHP 260755Z AUTO 35022G32KT 10SM OVC024 M03/M07 A3008 RMK AO2 PK WND 33038/0704 PRESRR SLP202 T10281067
Loading
Personal Weather Stations






























Interactive Weather Map New forecast layout! Learn more

10-Day Weather Forecast

Advertisements
Track Severe Weather on mobile